Time;durP1;ratioP1;P1;durP2;ratioP2;P2;SDS_P1;SDS_P2;PMS_P1;PMS_P2;Temp;Humidity;BMP_temperature;BMP_pressure;BME280_temperature;BME280_humidity;BME280_pressure;Samples;Min_cycle;Max_cycle;Signal;HPM_P1;HPM_P2
2023/06/16 00:00:12;;;;;;;;;;;;;;;19.65;47.05;99588.91;5041930;28;19970;-73
2023/06/16 00:02:41;;;;;;;;;;;;;;;19.68;46.93;99595.72;5043825;28;19924;-73
2023/06/16 00:05:09;;;;;;;;;;;;;;;19.69;46.77;99587.09;5040520;28;19982;-73
2023/06/16 00:07:36;;;;;;;;;;;;;;;19.70;46.72;99585.09;5041846;28;20031;-73
2023/06/16 00:10:02;;;;;;;;;;;;;;;19.67;46.56;99578.31;5044002;28;20024;-73
2023/06/16 00:12:29;;;;;;;;;;;;;;;19.67;46.76;99586.63;5010734;28;19986;-73
2023/06/16 00:14:56;;;;;;;;;;;;;;;19.69;46.34;99592.63;5041751;28;20479;-72
2023/06/16 00:17:23;;;;;;;;;;;;;;;19.70;46.21;99583.16;5045354;28;19970;-71
2023/06/16 00:19:49;;;;;;;;;;;;;;;19.74;46.29;99588.81;5042588;28;19928;-73
2023/06/16 00:22:15;;;;;;;;;;;;;;;19.73;46.12;99584.41;5042046;28;19924;-72
2023/06/16 00:24:41;;;;;;;;;;;;;;;19.73;45.97;99581.66;5042064;28;19935;-73
2023/06/16 00:27:07;;;;;;;;;;;;;;;19.77;45.83;99579.84;5042394;28;20015;-73
2023/06/16 00:29:33;;;;;;;;;;;;;;;19.79;45.70;99594.16;5041654;28;19924;-73
2023/06/16 00:32:00;;;;;;;;;;;;;;;19.81;45.46;99588.25;5041649;28;19947;-72
2023/06/16 00:34:26;;;;;;;;;;;;;;;19.82;45.54;99587.91;5044971;28;19964;-72
2023/06/16 00:36:52;;;;;;;;;;;;;;;19.83;45.48;99584.00;5041855;28;19986;-73
2023/06/16 00:39:18;;;;;;;;;;;;;;;19.86;45.12;99592.78;5042469;28;20027;-71
2023/06/16 00:41:43;;;;;;;;;;;;;;;19.87;45.60;99588.84;5042830;28;19932;-73
2023/06/16 00:44:09;;;;;;;;;;;;;;;19.87;45.76;99580.53;5042487;28;20334;-73
2023/06/16 00:46:36;;;;;;;;;;;;;;;19.85;45.75;99594.75;5028062;28;20318;-72
2023/06/16 00:49:04;;;;;;;;;;;;;;;19.85;45.48;99591.97;5023439;28;20238;-72
2023/06/16 00:51:30;;;;;;;;;;;;;;;19.84;45.48;99588.38;5023685;28;20304;-71
2023/06/16 00:53:57;;;;;;;;;;;;;;;19.85;45.08;99586.44;5040940;28;19924;-71
2023/06/16 00:56:23;;;;;;;;;;;;;;;19.85;45.53;99586.44;5026820;28;19924;-73
2023/06/16 00:58:51;;;;;;;;;;;;;;;19.86;45.62;99595.56;5041984;28;19924;-72
2023/06/16 01:01:17;;;;;;;;;;;;;;;19.78;45.81;99573.13;5040200;28;19932;-73
2023/06/16 01:03:44;;;;;;;;;;;;;;;19.84;45.88;99584.81;5024815;28;19935;-71
2023/06/16 01:06:15;;;;;;;;;;;;;;;19.83;45.99;99591.53;5041554;28;19964;-71
2023/06/16 01:08:44;;;;;;;;;;;;;;;19.80;46.04;99589.41;5024913;28;20322;-72
2023/06/16 01:11:11;;;;;;;;;;;;;;;19.82;45.90;99587.91;5043809;28;19943;-72
2023/06/16 01:13:43;;;;;;;;;;;;;;;19.84;45.93;99587.59;5045902;28;19983;-72
2023/06/16 01:16:10;;;;;;;;;;;;;;;19.83;45.75;99586.78;5046322;28;20300;-72
2023/06/16 01:18:39;;;;;;;;;;;;;;;19.85;45.79;99583.66;5013347;28;20427;-73
2023/06/16 01:21:09;;;;;;;;;;;;;;;19.85;45.63;99583.66;5044646;28;19924;-73
2023/06/16 01:23:42;;;;;;;;;;;;;;;19.89;45.52;99583.75;5028063;28;19986;-73
2023/06/16 01:26:11;;;;;;;;;;;;;;;19.92;45.29;99585.91;5047490;28;19925;-72
2023/06/16 01:28:40;;;;;;;;;;;;;;;19.86;45.10;99576.97;5046781;28;19952;-73
2023/06/16 01:31:08;;;;;;;;;;;;;;;19.95;45.30;99585.22;5044442;28;19924;-73
2023/06/16 01:33:35;;;;;;;;;;;;;;;19.94;45.34;99589.16;5045839;28;19931;-73
2023/06/16 01:36:01;;;;;;;;;;;;;;;19.93;45.06;99588.31;5045207;28;19929;-73
2023/06/16 01:38:27;;;;;;;;;;;;;;;19.93;45.21;99585.53;5042482;28;20110;-74
2023/06/16 01:40:54;;;;;;;;;;;;;;;19.95;45.40;99585.22;5046113;28;19925;-72
2023/06/16 01:43:22;;;;;;;;;;;;;;;19.95;45.24;99588.00;5045796;28;20427;-72
2023/06/16 01:45:49;;;;;;;;;;;;;;;19.94;45.22;99584.38;5044172;28;19932;-73
2023/06/16 01:48:15;;;;;;;;;;;;;;;19.92;45.26;99586.69;5045055;28;19928;-73
2023/06/16 01:50:41;;;;;;;;;;;;;;;19.90;45.38;99575.13;5044006;28;20402;-72
2023/06/16 01:53:09;;;;;;;;;;;;;;;19.88;45.42;99582.16;5028114;28;19932;-72
2023/06/16 01:55:34;;;;;;;;;;;;;;;19.85;45.63;99583.66;5046519;28;19924;-72
2023/06/16 01:58:00;;;;;;;;;;;;;;;19.81;45.66;99582.69;5043915;28;20031;-72
2023/06/16 02:00:29;;;;;;;;;;;;;;;19.79;45.67;99583.06;5042264;28;19928;-71
2023/06/16 02:02:57;;;;;;;;;;;;;;;19.78;45.89;99588.94;5026097;28;19932;-73
2023/06/16 02:05:24;;;;;;;;;;;;;;;19.77;45.75;99587.31;5041626;28;20323;-72
2023/06/16 02:07:52;;;;;;;;;;;;;;;19.74;46.28;99591.59;5044216;28;19990;-72
2023/06/16 02:10:19;;;;;;;;;;;;;;;19.74;46.12;99588.00;5044813;28;19956;-72
2023/06/16 02:12:45;;;;;;;;;;;;;;;19.73;46.29;99589.16;5046578;28;20410;-72
2023/06/16 02:15:12;;;;;;;;;;;;;;;19.73;46.39;99591.94;5045548;28;19924;-72
2023/06/16 02:17:44;;;;;;;;;;;;;;;19.73;46.36;99584.41;5042511;28;19970;-74
2023/06/16 02:20:10;;;;;;;;;;;;;;;19.76;46.13;99586.53;5030328;28;19980;-73
2023/06/16 02:22:36;;;;;;;;;;;;;;;19.76;46.09;99577.38;5045532;28;20024;-73
2023/06/16 02:25:03;;;;;;;;;;;;;;;19.75;46.28;99582.13;5046482;28;19947;-72
2023/06/16 02:27:29;;;;;;;;;;;;;;;19.77;46.09;99576.22;5028575;28;20015;-72
2023/06/16 02:29:57;;;;;;;;;;;;;;;19.76;46.48;99580.97;5045668;28;19970;-72
2023/06/16 02:32:23;;;;;;;;;;;;;;;19.78;46.42;99586.16;5047450;28;20324;-73
2023/06/16 02:34:52;;;;;;;;;;;;;;;19.80;46.44;99581.91;5045248;28;20039;-72
2023/06/16 02:37:19;;;;;;;;;;;;;;;19.84;46.10;99574.50;5041178;28;20426;-73
2023/06/16 02:39:45;;;;;;;;;;;;;;;19.84;46.16;99574.50;5026462;28;19951;-73
2023/06/16 02:42:12;;;;;;;;;;;;;;;19.84;46.34;99573.72;5043910;28;20367;-73
2023/06/16 02:44:38;;;;;;;;;;;;;;;19.91;46.53;99573.16;5044738;28;19994;-72
2023/06/16 02:47:05;;;;;;;;;;;;;;;19.97;46.35;99569.81;5042691;28;20384;-72
2023/06/16 02:49:31;;;;;;;;;;;;;;;20.02;46.21;99565.22;5026120;28;19967;-71
2023/06/16 02:52:00;;;;;;;;;;;;;;;20.09;46.24;99559.91;5042061;28;20019;-72
2023/06/16 02:54:26;;;;;;;;;;;;;;;20.12;46.07;99562.81;5027530;28;19925;-72
2023/06/16 02:56:53;;;;;;;;;;;;;;;20.18;45.69;99566.16;5027551;28;19924;-71
2023/06/16 02:59:24;;;;;;;;;;;;;;;20.24;45.83;99564.78;5043747;28;19924;-73
2023/06/16 03:01:50;;;;;;;;;;;;;;;20.29;45.90;99566.53;5044393;28;19928;-73
2023/06/16 03:04:27;;;;;;;;;;;;;;;20.37;45.57;99564.78;5045142;28;19978;-73
2023/06/16 03:07:31;;;;;;;;;;;;;;;20.42;45.43;99561.78;5036403;28;20006;-74
2023/06/16 03:10:01;;;;;;;;;;;;;;;20.46;45.25;99564.66;5041576;28;19929;-73
2023/06/16 03:12:34;;;;;;;;;;;;;;;20.48;45.20;99571.50;5043938;28;20319;-72
2023/06/16 03:15:07;;;;;;;;;;;;;;;20.52;44.93;99572.41;5042837;28;19929;-73
2023/06/16 03:17:33;;;;;;;;;;;;;;;20.56;44.69;99564.22;5042574;28;20537;-72
2023/06/16 03:20:00;;;;;;;;;;;;;;;20.60;44.64;99567.91;5041710;28;20102;-73
2023/06/16 03:22:38;;;;;;;;;;;;;;;20.63;44.78;99569.19;5041904;28;20406;-73
2023/06/16 03:25:05;;;;;;;;;;;;;;;20.68;44.73;99561.44;5045187;28;19956;-74
2023/06/16 03:27:40;;;;;;;;;;;;;;;20.76;44.09;99556.06;5042469;28;19959;-73
2023/06/16 03:30:07;;;;;;;;;;;;;;;20.79;44.11;99561.75;5041153;28;19979;-73
2023/06/16 03:33:02;;;;;;;;;;;;;;;20.82;44.27;99566.63;5028666;28;19925;-74
2023/06/16 03:35:31;;;;;;;;;;;;;;;20.88;43.95;99564.44;5041223;28;20342;-73
2023/06/16 03:38:00;;;;;;;;;;;;;;;20.98;43.42;99560.34;5043465;28;20421;-75
2023/06/16 03:40:27;;;;;;;;;;;;;;;21.05;42.99;99560.53;5013097;28;19929;-71
2023/06/16 03:42:53;;;;;;;;;;;;;;;21.10;43.19;99560.31;5043307;28;20015;-72
2023/06/16 03:45:19;;;;;;;;;;;;;;;21.11;42.67;99544.44;5009264;28;20375;-72
2023/06/16 03:47:47;;;;;;;;;;;;;;;21.33;42.68;99554.19;5025865;28;20178;-71
2023/06/16 03:50:13;;;;;;;;;;;;;;;21.47;42.19;99555.78;5042054;28;20015;-73
2023/06/16 03:52:41;;;;;;;;;;;;;;;21.60;41.90;99550.94;5041486;28;20482;-72
2023/06/16 03:55:09;;;;;;;;;;;;;;;21.71;41.28;99549.31;5041441;28;19925;-72
2023/06/16 03:57:36;;;;;;;;;;;;;;;21.82;40.99;99555.13;5058614;28;20297;-72
2023/06/16 04:00:04;;;;;;;;;;;;;;;21.92;41.12;99553.78;5041449;28;19932;-71
2023/06/16 04:02:40;;;;;;;;;;;;;;;22.00;40.76;99561.19;5045977;28;19925;-73
2023/06/16 04:05:09;;;;;;;;;;;;;;;22.02;40.58;99552.47;5042654;28;19925;-72
2023/06/16 04:07:35;;;;;;;;;;;;;;;22.15;40.52;99555.97;5042982;28;19928;-73
2023/06/16 04:10:01;;;;;;;;;;;;;;;22.16;40.17;99555.59;5041535;28;19931;-73
2023/06/16 04:12:31;;;;;;;;;;;;;;;22.23;40.21;99561.38;5038302;28;19992;-74
2023/06/16 04:14:59;;;;;;;;;;;;;;;22.30;40.16;99557.13;5038719;28;20066;-74
2023/06/16 04:17:25;;;;;;;;;;;;;;;22.33;39.83;99559.22;5033663;28;20027;-73
2023/06/16 04:19:51;;;;;;;;;;;;;;;22.39;39.70;99554.97;5040593;28;20284;-74
2023/06/16 04:22:17;;;;;;;;;;;;;;;22.46;39.86;99552.34;5044121;28;19925;-73
2023/06/16 04:24:53;;;;;;;;;;;;;;;22.53;39.58;99557.31;5040262;28;19960;-73
2023/06/16 04:27:23;;;;;;;;;;;;;;;22.59;39.41;99552.25;5022124;28;19931;-74
2023/06/16 04:29:52;;;;;;;;;;;;;;;22.63;38.95;99558.72;5043793;28;19935;-72
2023/06/16 04:32:18;;;;;;;;;;;;;;;22.70;39.03;99549.72;5025826;28;20022;-75
2023/06/16 04:34:49;;;;;;;;;;;;;;;22.78;38.85;99552.31;5042822;28;19924;-74
2023/06/16 04:37:18;;;;;;;;;;;;;;;22.86;38.77;99549.69;5043548;28;19924;-74
2023/06/16 04:39:44;;;;;;;;;;;;;;;22.95;38.54;99550.31;5041328;28;19931;-75
2023/06/16 04:42:15;;;;;;;;;;;;;;;23.03;38.44;99554.03;5042169;28;19924;-74
2023/06/16 04:44:41;;;;;;;;;;;;;;;23.09;38.33;99558.16;5027087;28;19964;-73
2023/06/16 04:47:09;;;;;;;;;;;;;;;23.12;37.93;99551.03;5032938;28;19925;-74
2023/06/16 04:49:35;;;;;;;;;;;;;;;23.15;38.26;99553.09;5027350;28;19925;-74
2023/06/16 04:52:02;;;;;;;;;;;;;;;23.23;37.91;99549.25;5027564;28;20016;-74
2023/06/16 04:54:29;;;;;;;;;;;;;;;23.29;37.71;99556.22;5026575;28;20418;-74
2023/06/16 04:56:56;;;;;;;;;;;;;;;23.36;37.71;99547.19;5022257;28;19925;-73
2023/06/16 04:59:22;;;;;;;;;;;;;;;23.44;37.43;99556.50;5045922;28;20446;-73
2023/06/16 05:01:49;;;;;;;;;;;;;;;23.52;37.13;99555.44;5047542;28;19925;-74
2023/06/16 05:04:18;;;;;;;;;;;;;;;23.57;37.26;99549.59;5029888;28;19978;-74
2023/06/16 05:06:44;;;;;;;;;;;;;;;23.66;36.79;99554.94;5048127;28;19928;-73
2023/06/16 05:09:10;;;;;;;;;;;;;;;23.70;36.88;99558.56;5046380;28;20351;-73
2023/06/16 05:11:37;;;;;;;;;;;;;;;23.72;36.31;99559.00;5029336;28;19925;-74
2023/06/16 05:14:03;;;;;;;;;;;;;;;23.75;36.35;99555.47;5030327;28;19924;-73
2023/06/16 05:16:30;;;;;;;;;;;;;;;23.76;36.16;99562.66;5028795;28;20415;-72
2023/06/16 05:18:58;;;;;;;;;;;;;;;23.75;35.83;99557.47;5044826;28;19931;-72
2023/06/16 05:21:30;;;;;;;;;;;;;;;23.74;35.57;99555.88;5031588;28;19924;-72
2023/06/16 05:24:00;;;;;;;;;;;;;;;23.77;35.79;99557.91;5008914;28;19932;-73
2023/06/16 05:26:30;;;;;;;;;;;;;;;23.87;34.96;99556.47;5036844;28;19924;-73
2023/06/16 05:28:57;;;;;;;;;;;;;;;24.02;34.70;99557.53;5020757;28;19925;-72
2023/06/16 05:31:24;;;;;;;;;;;;;;;24.15;34.43;99556.19;5026502;28;19924;-73
2023/06/16 05:33:51;;;;;;;;;;;;;;;24.23;34.45;99562.69;5044933;28;19931;-72
2023/06/16 05:36:17;;;;;;;;;;;;;;;24.12;34.81;99564.50;5026530;28;19982;-72
2023/06/16 05:38:47;;;;;;;;;;;;;;;24.05;34.96;99570.81;5029233;28;19928;-73
2023/06/16 05:41:17;;;;;;;;;;;;;;;24.05;35.33;99571.59;5039661;28;20341;-73
2023/06/16 05:43:45;;;;;;;;;;;;;;;24.01;35.30;99573.50;5044378;28;19925;-74
2023/06/16 05:46:11;;;;;;;;;;;;;;;23.99;35.00;99561.91;5047796;28;19979;-74
2023/06/16 05:48:37;;;;;;;;;;;;;;;24.08;35.07;99556.88;5045876;28;19925;-73
2023/06/16 05:51:03;;;;;;;;;;;;;;;24.27;34.67;99557.97;5031084;28;20024;-73
2023/06/16 05:53:30;;;;;;;;;;;;;;;24.55;34.17;99554.03;5026677;28;19925;-73
2023/06/16 05:55:57;;;;;;;;;;;;;;;24.77;33.47;99554.38;5029499;28;20019;-72
2023/06/16 05:58:23;;;;;;;;;;;;;;;24.99;32.71;99558.28;5029622;28;20003;-72
2023/06/16 06:00:49;;;;;;;;;;;;;;;25.12;32.10;99560.81;5044097;28;19925;-73
2023/06/16 06:03:18;;;;;;;;;;;;;;;25.21;31.74;99550.16;5026548;28;19925;-72
2023/06/16 06:05:44;;;;;;;;;;;;;;;25.24;31.56;99549.38;5044732;28;19954;-73
2023/06/16 06:08:12;;;;;;;;;;;;;;;25.21;31.39;99555.75;5044678;28;19979;-72
2023/06/16 06:10:38;;;;;;;;;;;;;;;25.17;31.37;99538.13;5026743;28;20022;-73
2023/06/16 06:13:06;;;;;;;;;;;;;;;25.09;31.65;99539.22;5041287;28;20055;-73
2023/06/16 06:15:34;;;;;;;;;;;;;;;25.19;31.29;99547.72;5037211;28;19971;-73
2023/06/16 06:18:05;;;;;;;;;;;;;;;25.24;31.25;99551.38;5038843;28;19924;-71
2023/06/16 06:20:34;;;;;;;;;;;;;;;25.27;30.81;99547.81;5029325;28;19924;-73
2023/06/16 06:23:00;;;;;;;;;;;;;;;25.33;31.01;99544.31;5047680;28;19932;-72
2023/06/16 06:25:26;;;;;;;;;;;;;;;25.37;30.69;99537.94;5046684;28;19995;-72
2023/06/16 06:27:52;;;;;;;;;;;;;;;25.53;30.31;99544.16;5045810;28;19956;-73
2023/06/16 06:30:19;;;;;;;;;;;;;;;25.62;29.80;99544.66;5045721;28;20415;-73
2023/06/16 06:32:45;;;;;;;;;;;;;;;25.80;29.36;99551.59;5028684;28;19947;-73
2023/06/16 06:35:11;;;;;;;;;;;;;;;26.01;29.15;99543.44;5028387;28;19932;-73
2023/06/16 06:37:37;;;;;;;;;;;;;;;26.19;28.63;99546.38;5044160;28;19924;-73
2023/06/16 06:40:05;;;;;;;;;;;;;;;26.35;28.24;99545.31;5041575;28;20229;-73
2023/06/16 06:42:32;;;;;;;;;;;;;;;26.37;28.15;99547.72;5024659;28;20022;-73
2023/06/16 06:44:58;;;;;;;;;;;;;;;26.32;28.17;99541.31;5040953;28;20011;-73
2023/06/16 06:47:26;;;;;;;;;;;;;;;26.46;28.02;99540.59;5040840;28;19969;-73
2023/06/16 06:49:57;;;;;;;;;;;;;;;26.52;27.39;99534.59;5043863;28;19925;-74
2023/06/16 06:52:23;;;;;;;;;;;;;;;26.56;27.63;99539.06;5034405;28;20438;-72
2023/06/16 06:54:49;;;;;;;;;;;;;;;26.70;27.41;99537.53;5038895;28;19931;-72
2023/06/16 06:57:16;;;;;;;;;;;;;;;26.81;27.38;99541.22;5038919;28;19928;-73
2023/06/16 06:59:42;;;;;;;;;;;;;;;26.89;27.50;99540.06;5039244;28;19951;-73
2023/06/16 07:02:08;;;;;;;;;;;;;;;26.93;27.33;99542.06;5045854;28;19986;-74
2023/06/16 07:04:38;;;;;;;;;;;;;;;26.93;27.36;99542.91;5024660;28;20392;-72
2023/06/16 07:07:04;;;;;;;;;;;;;;;27.01;27.12;99543.72;5025290;28;20475;-73
2023/06/16 07:09:30;;;;;;;;;;;;;;;27.03;26.87;99544.97;5036761;28;19924;-73
2023/06/16 07:11:59;;;;;;;;;;;;;;;27.08;26.51;99537.34;5057834;28;19986;-72
2023/06/16 07:14:26;;;;;;;;;;;;;;;27.37;26.11;99535.44;5038294;28;19939;-73
2023/06/16 07:16:52;;;;;;;;;;;;;;;27.61;25.86;99530.34;5026200;28;20011;-73
2023/06/16 07:19:18;;;;;;;;;;;;;;;27.78;25.89;99536.38;5033392;28;20019;-73
2023/06/16 07:21:45;;;;;;;;;;;;;;;27.92;25.35;99525.16;5031693;28;20378;-73
2023/06/16 07:24:11;;;;;;;;;;;;;;;27.89;25.34;99526.75;5035872;28;19938;-73
2023/06/16 07:26:37;;;;;;;;;;;;;;;28.02;25.18;99529.97;5034217;28;19933;-72
2023/06/16 07:29:03;;;;;;;;;;;;;;;28.14;24.78;99525.97;5050977;28;19940;-72
2023/06/16 07:31:29;;;;;;;;;;;;;;;28.29;24.43;99520.34;5023236;28;20207;-72
2023/06/16 07:33:55;;;;;;;;;;;;;;;28.34;24.56;99528.38;5039707;28;20217;-73
2023/06/16 07:36:21;;;;;;;;;;;;;;;28.45;24.67;99526.34;5038811;28;19978;-74
2023/06/16 07:38:48;;;;;;;;;;;;;;;28.51;24.41;99540.81;5034633;28;20447;-72
2023/06/16 07:41:14;;;;;;;;;;;;;;;28.50;24.29;99524.34;5038875;28;19925;-72
2023/06/16 07:43:40;;;;;;;;;;;;;;;28.60;23.90;99534.78;5045288;28;19936;-73
2023/06/16 07:46:05;;;;;;;;;;;;;;;28.80;23.77;99523.06;5039979;28;19925;-73
2023/06/16 07:48:31;;;;;;;;;;;;;;;29.07;23.62;99517.75;5042797;28;19951;-73
2023/06/16 07:50:57;;;;;;;;;;;;;;;29.25;23.19;99526.13;5044924;28;20027;-73
2023/06/16 07:53:23;;;;;;;;;;;;;;;29.22;22.93;99526.94;5040020;28;19908;-73
2023/06/16 07:55:51;;;;;;;;;;;;;;;29.33;22.78;99526.88;5039407;28;19924;-73
2023/06/16 07:58:16;;;;;;;;;;;;;;;29.62;22.55;99521.13;5044834;28;20038;-73
2023/06/16 08:00:42;;;;;;;;;;;;;;;29.90;22.20;99527.75;5040644;28;20363;-72
2023/06/16 08:03:08;;;;;;;;;;;;;;;29.83;22.23;99519.34;5041684;28;19924;-72
2023/06/16 08:05:34;;;;;;;;;;;;;;;29.55;22.20;99510.69;5038867;28;19931;-70
2023/06/16 08:08:00;;;;;;;;;;;;;;;29.35;22.53;99518.00;5040754;28;20303;-73
2023/06/16 08:10:26;;;;;;;;;;;;;;;29.30;22.26;99510.81;5041509;28;19951;-73
2023/06/16 08:12:53;;;;;;;;;;;;;;;29.46;22.03;99501.13;5037737;28;20476;-73
2023/06/16 08:15:20;;;;;;;;;;;;;;;29.71;21.62;99509.38;5051780;28;20095;-74
2023/06/16 08:17:45;;;;;;;;;;;;;;;29.97;21.43;99512.78;5039235;28;19933;-74
2023/06/16 08:20:12;;;;;;;;;;;;;;;30.20;21.29;99508.63;5042209;28;19935;-72
2023/06/16 08:22:37;;;;;;;;;;;;;;;30.70;20.55;99510.94;5036222;28;20404;-73
2023/06/16 08:25:05;;;;;;;;;;;;;;;31.26;19.82;99514.72;5040858;28;20002;-73
2023/06/16 08:27:31;;;;;;;;;;;;;;;31.77;19.12;99500.66;5042446;28;20398;-73
2023/06/16 08:29:58;;;;;;;;;;;;;;;32.06;18.71;99503.03;5036518;28;20028;-73
2023/06/16 08:32:25;;;;;;;;;;;;;;;32.24;18.32;99499.91;5058856;28;20379;-73
2023/06/16 08:34:52;;;;;;;;;;;;;;;32.33;18.53;99492.88;5038335;28;20421;-73
2023/06/16 08:37:19;;;;;;;;;;;;;;;32.54;18.02;99503.81;5031967;28;20027;-72
2023/06/16 08:39:45;;;;;;;;;;;;;;;32.70;18.08;99496.63;5032399;28;20023;-72
2023/06/16 08:42:11;;;;;;;;;;;;;;;32.93;17.83;99497.81;5017927;28;19929;-72
2023/06/16 08:44:38;;;;;;;;;;;;;;;32.98;18.11;99494.47;5033036;28;19940;-72
2023/06/16 08:47:08;;;;;;;;;;;;;;;32.59;18.69;99499.69;5040901;28;19939;-71
2023/06/16 08:49:34;;;;;;;;;;;;;;;32.18;19.27;99503.66;5032594;28;19924;-72
2023/06/16 08:52:01;;;;;;;;;;;;;;;31.44;19.79;99505.19;5020714;28;19931;-72
2023/06/16 08:54:31;;;;;;;;;;;;;;;31.09;20.28;99500.38;5036783;28;19932;-72
2023/06/16 08:56:58;;;;;;;;;;;;;;;31.49;20.10;99499.09;5029974;28;20092;-72
2023/06/16 08:59:27;;;;;;;;;;;;;;;32.35;19.10;99494.06;5037625;28;19924;-73
2023/06/16 09:01:52;;;;;;;;;;;;;;;32.39;19.33;99491.97;5035209;28;19963;-70
2023/06/16 09:04:20;;;;;;;;;;;;;;;31.88;19.58;99488.41;5033198;28;19968;-71
2023/06/16 09:06:47;;;;;;;;;;;;;;;31.20;20.38;99485.34;5038373;28;19924;-71
2023/06/16 09:09:14;;;;;;;;;;;;;;;30.40;21.27;99489.09;5038310;28;19925;-72
2023/06/16 09:11:40;;;;;;;;;;;;;;;29.75;21.78;99486.84;5036958;28;19931;-73
2023/06/16 09:14:10;;;;;;;;;;;;;;;29.37;22.46;99484.66;5021580;28;20023;-73
2023/06/16 09:16:39;;;;;;;;;;;;;;;29.06;22.60;99490.81;5039903;28;19925;-73
2023/06/16 09:19:06;;;;;;;;;;;;;;;28.69;23.20;99475.28;5036045;28;20368;-72
2023/06/16 09:21:34;;;;;;;;;;;;;;;28.62;23.48;99489.34;5036867;28;19925;-73
2023/06/16 09:24:00;;;;;;;;;;;;;;;28.54;23.73;99497.81;5029873;28;20348;-73
2023/06/16 09:26:30;;;;;;;;;;;;;;;28.57;23.56;99493.41;5038002;28;19925;-73
2023/06/16 09:28:56;;;;;;;;;;;;;;;28.49;23.68;99498.25;5039805;28;19932;-74
2023/06/16 09:31:23;;;;;;;;;;;;;;;28.55;23.78;99487.38;4682445;28;10000415;-72
2023/06/16 09:33:49;;;;;;;;;;;;;;;28.53;23.62;99498.22;5034902;28;19928;-72
2023/06/16 09:36:25;;;;;;;;;;;;;;;28.49;23.86;99491.81;5038378;28;19928;-72
2023/06/16 09:38:52;;;;;;;;;;;;;;;29.13;23.08;99487.19;5040729;28;19974;-72
2023/06/16 09:41:18;;;;;;;;;;;;;;;31.30;21.28;99483.63;5022893;28;19939;-72
2023/06/16 09:43:44;;;;;;;;;;;;;;;33.34;18.93;99476.72;5035951;28;19951;-72
2023/06/16 09:46:11;;;;;;;;;;;;;;;35.06;17.50;99468.22;5036218;28;19924;-73
2023/06/16 09:48:43;;;;;;;;;;;;;;;35.25;17.31;99477.78;5041106;28;19925;-72
2023/06/16 09:51:10;;;;;;;;;;;;;;;35.55;16.84;99472.81;5036214;28;20391;-73
2023/06/16 09:53:36;;;;;;;;;;;;;;;34.98;16.90;99469.69;5035843;28;20304;-72
2023/06/16 09:56:05;;;;;;;;;;;;;;;33.49;18.48;99471.53;5025002;28;19929;-72
2023/06/16 09:58:30;;;;;;;;;;;;;;;32.49;19.12;99478.84;5034591;28;19925;-72
2023/06/16 10:00:58;;;;;;;;;;;;;;;32.62;18.65;99466.91;5032392;28;19936;-72
2023/06/16 10:03:24;;;;;;;;;;;;;;;32.11;19.15;99467.84;5039931;28;19925;-72
2023/06/16 10:05:54;;;;;;;;;;;;;;;31.40;19.67;99469.34;5039682;28;19929;-72
2023/06/16 10:08:21;;;;;;;;;;;;;;;30.58;20.42;99466.31;5025773;28;20404;-72
2023/06/16 10:10:51;;;;;;;;;;;;;;;30.23;20.88;99462.69;5025250;28;19925;-70
2023/06/16 10:13:20;;;;;;;;;;;;;;;29.96;21.28;99466.94;5045274;28;20336;-72
2023/06/16 10:15:48;;;;;;;;;;;;;;;30.31;21.25;99458.56;5042228;28;20020;-72
2023/06/16 10:18:16;;;;;;;;;;;;;;;31.86;19.92;99463.41;5040178;28;20010;-72
2023/06/16 10:20:42;;;;;;;;;;;;;;;32.25;19.26;99452.63;5041535;28;20404;-73
2023/06/16 10:23:09;;;;;;;;;;;;;;;31.94;19.43;99452.78;5044172;28;20226;-74
2023/06/16 10:25:35;;;;;;;;;;;;;;;31.50;19.82;99452.66;5034238;28;19971;-74
2023/06/16 10:28:06;;;;;;;;;;;;;;;32.05;19.60;99455.41;5038881;28;20341;-72
2023/06/16 10:30:35;;;;;;;;;;;;;;;32.15;19.17;99445.13;5056639;28;19932;-72
2023/06/16 10:33:14;;;;;;;;;;;;;;;31.52;19.71;99445.34;5037214;28;19924;-72
2023/06/16 10:35:48;;;;;;;;;;;;;;;30.73;19.94;99450.06;5041177;28;19978;-73
2023/06/16 10:38:14;;;;;;;;;;;;;;;30.17;20.61;99445.41;5045279;28;19925;-72
2023/06/16 10:40:41;;;;;;;;;;;;;;;30.24;20.67;99448.19;5042099;28;19936;-72
2023/06/16 10:43:10;;;;;;;;;;;;;;;30.59;20.43;99438.94;5046025;28;20351;-73
2023/06/16 10:45:39;;;;;;;;;;;;;;;30.80;20.02;99440.72;5039599;28;19932;-73
2023/06/16 10:48:11;;;;;;;;;;;;;;;31.18;19.85;99439.81;5034435;28;19932;-73
2023/06/16 10:50:40;;;;;;;;;;;;;;;33.12;18.15;99438.78;5034588;28;19932;-74
2023/06/16 10:53:10;;;;;;;;;;;;;;;35.46;16.57;99427.22;5041310;28;19924;-73
2023/06/16 10:55:38;;;;;;;;;;;;;;;37.26;15.05;99426.91;5036520;28;19960;-73
2023/06/16 10:58:28;;;;;;;;;;;;;;;38.36;14.28;99424.75;5039252;28;19925;-73
2023/06/16 11:01:06;;;;;;;;;;;;;;;38.61;13.94;99414.25;5036380;28;19931;-73
2023/06/16 11:03:35;;;;;;;;;;;;;;;36.98;14.92;99416.16;5033304;28;19932;-75
2023/06/16 11:06:01;;;;;;;;;;;;;;;35.55;15.67;99416.00;5037786;28;19924;-72
2023/06/16 11:08:28;;;;;;;;;;;;;;;35.42;16.17;99410.28;5040008;28;19936;-72
2023/06/16 11:10:56;;;;;;;;;;;;;;;35.72;15.79;99410.16;5037555;28;20395;-74
2023/06/16 11:13:24;;;;;;;;;;;;;;;34.51;16.49;99409.41;5040713;28;19929;-73
2023/06/16 11:15:52;;;;;;;;;;;;;;;34.06;17.03;99406.16;5041158;28;20383;-73
2023/06/16 11:18:22;;;;;;;;;;;;;;;33.04;17.92;99415.50;4677184;28;10000348;-74
2023/06/16 11:20:48;;;;;;;;;;;;;;;32.02;18.90;99420.34;5035207;28;19940;-72
2023/06/16 11:23:14;;;;;;;;;;;;;;;31.31;19.94;99415.44;5035818;28;19928;-72
2023/06/16 11:25:40;;;;;;;;;;;;;;;30.82;20.15;99419.31;5040510;28;20376;-72
2023/06/16 11:28:06;;;;;;;;;;;;;;;30.76;20.18;99417.41;5040154;28;19928;-73
2023/06/16 11:30:35;;;;;;;;;;;;;;;32.78;18.46;99410.38;5041286;28;19936;-73
2023/06/16 11:33:01;;;;;;;;;;;;;;;35.00;16.53;99411.16;5040254;28;20330;-74
2023/06/16 11:35:33;;;;;;;;;;;;;;;36.43;15.41;99406.00;5039959;28;19932;-74
2023/06/16 11:37:59;;;;;;;;;;;;;;;37.93;14.39;99400.94;5040526;28;19924;-73
2023/06/16 11:40:26;;;;;;;;;;;;;;;39.25;13.35;99391.69;5038130;28;19938;-73
2023/06/16 11:42:53;;;;;;;;;;;;;;;39.75;13.08;99396.16;5039139;28;19935;-73
2023/06/16 11:45:19;;;;;;;;;;;;;;;39.99;12.77;99385.50;5038078;28;19924;-73
2023/06/16 11:47:45;;;;;;;;;;;;;;;40.02;12.62;99388.66;5043468;28;20332;-72
2023/06/16 11:50:11;;;;;;;;;;;;;;;40.33;12.10;99390.31;5028826;28;19952;-74
2023/06/16 11:52:39;;;;;;;;;;;;;;;40.71;11.85;99385.75;5027121;28;19925;-73
2023/06/16 11:55:05;;;;;;;;;;;;;;;40.12;11.78;99376.63;5033312;28;19925;-73
2023/06/16 11:57:35;;;;;;;;;;;;;;;38.01;13.17;99385.94;5016049;28;19929;-73
2023/06/16 12:00:03;;;;;;;;;;;;;;;36.71;14.36;99388.38;5042523;28;19925;-73
2023/06/16 12:02:30;;;;;;;;;;;;;;;35.54;15.04;99382.34;5040514;28;19925;-72
2023/06/16 12:04:56;;;;;;;;;;;;;;;34.65;15.65;99386.25;5041960;28;19982;-73
2023/06/16 12:07:23;;;;;;;;;;;;;;;34.20;16.26;99385.09;5039973;28;19924;-73
2023/06/16 12:09:57;;;;;;;;;;;;;;;33.87;16.26;99368.16;5040192;28;20445;-72
2023/06/16 12:12:26;;;;;;;;;;;;;;;33.34;16.54;99376.78;5041240;28;19932;-72
2023/06/16 12:14:54;;;;;;;;;;;;;;;32.86;17.27;99382.72;5039946;28;20037;-72
2023/06/16 12:17:24;;;;;;;;;;;;;;;32.54;18.15;99379.34;5037854;28;19925;-73
2023/06/16 12:19:53;;;;;;;;;;;;;;;32.72;18.15;99378.19;5034932;28;19928;-73
2023/06/16 12:22:20;;;;;;;;;;;;;;;32.44;18.41;99383.22;5035903;28;20400;-73
2023/06/16 12:24:47;;;;;;;;;;;;;;;32.05;18.86;99376.25;5037479;28;19932;-73
2023/06/16 12:27:23;;;;;;;;;;;;;;;31.52;19.23;99374.75;5031811;28;19992;-73
2023/06/16 12:29:55;;;;;;;;;;;;;;;30.99;20.05;99375.16;5041664;28;19925;-73
2023/06/16 12:32:27;;;;;;;;;;;;;;;30.70;20.33;99371.94;5036867;28;20384;-73
2023/06/16 12:34:53;;;;;;;;;;;;;;;30.45;20.58;99361.75;5043330;28;20039;-73
2023/06/16 12:37:19;;;;;;;;;;;;;;;30.11;21.11;99373.81;5041820;28;20415;-72
2023/06/16 12:39:55;;;;;;;;;;;;;;;29.99;21.18;99370.28;5035642;28;20351;-72
2023/06/16 12:42:29;;;;;;;;;;;;;;;29.99;21.23;99367.47;5037192;28;20058;-73
2023/06/16 12:44:59;;;;;;;;;;;;;;;31.71;19.47;99361.13;5026658;28;19925;-73
2023/06/16 12:47:25;;;;;;;;;;;;;;;34.76;17.09;99356.78;5044686;28;20026;-73